Jackson, AL (36545)

5:13 AM CDT on July 29, 2014 (GMT -0500)
Belview Circle (KALJACKS2) Elev 381 ft | 31.54 °N, 87.89 °W | Change Station

Current weather conditions updated 1 second ago

Clear
Clear
65.0 °F
Feels Like 65.0 °F
N
0.0
Wind Variable Wind from NNW
Gusts 0.0 mph

Today is forecast to be Cooler than yesterday.

Today
High -- | Low -- °F
--% Chance of Precip.
Yesterday
High -- | Low -- °F
Precip. -- in
6:05 AM 7:49 PM
Waxing Crescent, 5% visible
Pressure 29.96 in
Visibility 10.0 miles
Clouds Clear
Dew Point 65 °F
Humidity 100%
Rainfall 0.00 in
Snow Depth Not available.
UV 0 out of 12
Pollen 4.10 out of 12
Air Quality Not available.
Flu Activity Not available.
METAR KGZH 290953Z AUTO 00000KT 10SM CLR 19/18 A2997 RMK AO2 SLP146 T01940183

More Conditions Fewer Conditions

Pressure 29.96 in
Visibility 10.0 miles
Clouds Clear
Dew Point 65 °F
Humidity 100%
Rainfall 0.00 in
Snow Depth Not available.
UV 0 out of 12
Pollen 4.10 out of 12
Air Quality Not available.
Flu Activity Not available.
METAR KGZH 290953Z AUTO 00000KT 10SM CLR 19/18 A2997 RMK AO2 SLP146 T01940183

More Conditions Fewer Conditions

10-Day Weather Forecast

Almanac

Astronomy

Jul. 29, 2014 Rise Set
Actual Time 6:05 AM CDT 7:49 PM CDT
Civil Twilight 5:39 AM CDT 8:16 PM CDT
Nautical Twilight 5:07 AM CDT 8:48 PM CDT
Astronomical Twilight 4:33 AM CDT 9:22 PM CDT
Moon 8:29 AM CDT 9:16 PM CDT
Length of Visible Light 14h 37m
Length of Day
13h 43m
Tomorrow will be 1m 22s shorter.
Waxing Crescent, 5% of the Moon is Illuminated
Today
Waxing Crescent
Aug 3
First Quarter
Aug 10
Full
Aug 17
Last Quarter
Aug 25
New

Today's Extremes

State Highs State Lows

Community

WunderPhotos

Upload Photos

1,738,675 photos uploaded!

Nearby

Snow Depth

Station Depth Elevation
No new snow has been reported.

Earthquake Activity

City Distance Mag. Time & Date
No recent earthquake activity has been reported nearby.
Minimum magnitude displayed is 2.5.

Coastal Water Temperatures

Place Temperature
No Stations Reporting

Nearby Weather Stations

Station Location Temp. Dew Point Humidity Wind Precip. Elev Updated Type
Belview Circle, Jackson, AL 65.0 °F 65 °F 100% NNW  at  0.0 mph 0.00 in / hr 381 ft 5:13 AM CDT Rapid Fire
Jackson, AL, Jackson, AL 70.3 °F 68 °F 93% NW  at  0.0 mph 0.00 in / hr 53 ft 5:12 AM CDT Rapid Fire
Perdue Hill, AL 68.1 °F 66 °F 93% ENE  at  2.0 mph 0.00 in / hr 70 ft 5:10 AM CDT Normal

Show More Stations Show Fewer Stations